createdAt,value
2022-10-08T07:31:40.281Z,16.20
2022-10-08T07:34:11.991Z,15.67
2022-10-08T07:36:49.120Z,15.50
2022-10-08T07:39:24.395Z,17.37
2022-10-08T07:41:59.285Z,17.27
2022-10-08T07:44:30.488Z,16.20
2022-10-08T07:47:04.620Z,17.97
2022-10-08T07:49:32.566Z,15.97
2022-10-08T07:52:01.455Z,13.83
2022-10-08T07:54:29.884Z,13.60
2022-10-08T07:56:58.473Z,13.80
2022-10-08T07:59:32.771Z,12.03
2022-10-08T08:02:02.597Z,11.03
2022-10-08T08:04:30.844Z,11.80
2022-10-08T08:07:03.669Z,12.00
2022-10-08T08:09:34.109Z,10.67
2022-10-08T08:12:05.103Z,11.37
2022-10-08T08:14:37.718Z,9.93
2022-10-08T08:17:10.217Z,9.60
2022-10-08T08:19:50.976Z,11.43
2022-10-08T08:22:21.715Z,10.80
2022-10-08T08:25:08.276Z,11.37
2022-10-08T08:27:40.688Z,11.60
2022-10-08T08:30:11.249Z,10.73
2022-10-08T08:32:55.427Z,10.73
2022-10-08T08:35:28.769Z,12.57
2022-10-08T08:38:07.663Z,10.70
2022-10-08T08:40:42.370Z,10.67
2022-10-08T08:43:15.561Z,11.20
2022-10-08T08:45:52.497Z,12.03
2022-10-08T08:48:28.927Z,13.37
2022-10-08T08:51:14.010Z,12.43
2022-10-08T08:54:03.139Z,9.07
2022-10-08T08:56:35.639Z,10.13
2022-10-08T08:59:32.272Z,10.77
2022-10-08T09:02:28.230Z,9.43
2022-10-08T09:05:21.000Z,11.30
2022-10-08T09:08:04.316Z,10.83
2022-10-08T09:10:42.450Z,10.03
2022-10-08T09:13:22.736Z,10.60
2022-10-08T09:15:58.306Z,11.70
2022-10-08T09:22:02.477Z,10.20
2022-10-08T09:24:42.256Z,11.67
2022-10-08T09:27:17.205Z,12.17
2022-10-08T09:30:03.851Z,14.10
2022-10-08T09:32:42.800Z,13.73
2022-10-08T09:35:21.711Z,14.97
2022-10-08T09:37:56.725Z,12.93
2022-10-08T09:40:33.117Z,15.13
2022-10-08T09:43:20.130Z,10.33
2022-10-08T09:45:54.938Z,12.70
2022-10-08T09:48:33.939Z,14.70
2022-10-08T09:51:13.004Z,12.83
2022-10-08T09:53:57.649Z,15.30
2022-10-08T09:56:36.575Z,15.03
2022-10-08T09:59:27.391Z,15.90
2022-10-08T10:02:14.707Z,15.43
2022-10-08T10:04:58.370Z,14.03
2022-10-08T10:07:38.742Z,16.50
2022-10-08T10:10:19.058Z,15.37
2022-10-08T10:13:02.226Z,14.80
2022-10-08T10:15:38.720Z,19.23
2022-10-08T10:18:15.830Z,14.17
2022-10-08T10:21:00.842Z,15.60
2022-10-08T10:23:34.601Z,14.20
2022-10-08T10:26:15.828Z,12.83
2022-10-08T10:28:55.403Z,13.00
2022-10-08T10:31:35.680Z,11.77
2022-10-08T10:34:15.832Z,12.80
2022-10-08T10:36:54.552Z,9.63
2022-10-08T10:39:32.859Z,9.03
2022-10-08T10:42:15.351Z,8.90
2022-10-08T10:44:58.278Z,7.40
2022-10-08T10:47:37.843Z,7.50
2022-10-08T10:50:18.206Z,5.27
2022-10-08T10:52:55.035Z,5.60
2022-10-08T10:58:40.757Z,4.07
2022-10-08T11:01:24.716Z,4.60
2022-10-08T11:04:26.812Z,5.20
2022-10-08T11:07:13.873Z,4.37
2022-10-08T11:09:45.668Z,4.80
2022-10-08T11:12:37.980Z,4.87
2022-10-08T11:15:46.573Z,5.47
2022-10-08T11:18:28.587Z,4.57
2022-10-08T11:21:18.621Z,4.93
2022-10-08T11:24:32.750Z,6.20
2022-10-08T11:27:52.989Z,5.00
2022-10-08T11:30:40.713Z,5.40
2022-10-08T11:33:22.183Z,4.93
2022-10-08T11:36:47.261Z,6.87
2022-10-08T11:39:21.793Z,5.00
2022-10-08T11:41:55.816Z,6.17
2022-10-08T11:44:32.073Z,6.57
2022-10-08T11:47:47.481Z,6.53
2022-10-08T11:50:32.821Z,6.87
2022-10-08T11:53:17.129Z,7.70
2022-10-08T11:55:53.226Z,7.97
2022-10-08T12:02:57.701Z,6.60
2022-10-08T12:05:37.656Z,5.23
2022-10-08T12:08:07.438Z,7.10
2022-10-08T12:10:39.401Z,7.30
2022-10-08T12:13:29.783Z,6.60
2022-10-08T12:16:07.235Z,6.30
2022-10-08T12:18:55.831Z,6.47
2022-10-08T12:22:02.916Z,6.13
2022-10-08T12:24:57.009Z,7.10
2022-10-08T12:27:40.644Z,6.07
2022-10-08T12:30:12.593Z,6.33
2022-10-08T12:32:57.237Z,5.60
2022-10-08T12:35:31.051Z,5.77
2022-10-08T12:38:27.656Z,6.47
2022-10-08T12:41:04.455Z,5.90
2022-10-08T12:43:43.080Z,5.53
2022-10-08T12:46:22.814Z,5.63
2022-10-08T12:48:54.604Z,6.80
2022-10-08T12:51:27.693Z,5.63
2022-10-08T12:53:58.827Z,5.20
2022-10-08T13:01:00.529Z,6.33
2022-10-08T13:03:29.958Z,5.20
2022-10-08T13:05:59.436Z,5.40
2022-10-08T13:08:35.982Z,5.13
2022-10-08T13:11:09.841Z,6.00
2022-10-08T13:13:49.835Z,5.10
2022-10-08T13:16:26.164Z,5.60
2022-10-08T13:18:58.218Z,5.50
2022-10-08T13:21:37.812Z,5.60
2022-10-08T13:24:42.395Z,5.30
2022-10-08T13:27:32.094Z,5.80
2022-10-08T13:30:04.750Z,5.83
2022-10-08T13:32:36.210Z,6.80
2022-10-08T13:35:09.378Z,5.53
2022-10-08T13:37:46.158Z,4.50
2022-10-08T13:40:22.268Z,4.00
2022-10-08T13:42:55.812Z,4.13
2022-10-08T13:45:27.001Z,4.60
2022-10-08T13:48:00.986Z,5.17
2022-10-08T13:50:35.999Z,4.77
2022-10-08T13:53:07.954Z,5.80
2022-10-08T13:55:37.610Z,4.87
2022-10-08T13:58:09.213Z,4.50
2022-10-08T14:00:40.536Z,5.00
2022-10-08T14:03:11.153Z,4.50
2022-10-08T14:05:41.847Z,4.70
2022-10-08T14:08:16.729Z,5.20
2022-10-08T14:10:47.807Z,4.40
2022-10-08T14:13:23.263Z,4.23
2022-10-08T14:15:55.073Z,5.67
2022-10-08T14:18:25.035Z,4.43
2022-10-08T14:20:57.008Z,5.27
2022-10-08T14:23:33.978Z,4.30
2022-10-08T14:26:05.610Z,4.90
2022-10-08T14:28:46.683Z,5.70
2022-10-08T14:31:17.944Z,4.70
2022-10-08T14:33:51.583Z,5.20
2022-10-08T14:36:34.545Z,5.50
2022-10-08T14:39:06.867Z,5.37
2022-10-08T14:41:37.053Z,4.67
2022-10-08T14:44:08.896Z,4.27
2022-10-08T14:46:42.244Z,4.57
2022-10-08T14:49:22.059Z,5.30
2022-10-08T14:52:22.920Z,4.80
2022-10-08T14:55:27.059Z,4.00
2022-10-08T14:58:24.032Z,5.10
2022-10-08T15:01:40.024Z,4.97
2022-10-08T15:04:31.531Z,4.70
2022-10-08T15:07:01.650Z,4.53
2022-10-08T15:09:31.637Z,4.70
2022-10-08T15:12:01.244Z,5.23
2022-10-08T15:14:35.675Z,4.47
2022-10-08T15:17:09.582Z,4.70
2022-10-08T15:19:39.305Z,5.23
2022-10-08T15:22:09.036Z,5.30
2022-10-08T15:24:38.839Z,5.67
2022-10-08T15:27:08.912Z,5.40
2022-10-08T15:29:38.633Z,6.60
2022-10-08T15:32:10.312Z,4.83
2022-10-08T15:34:40.099Z,5.00
2022-10-08T15:37:10.315Z,5.90
2022-10-08T15:39:39.083Z,6.33
2022-10-08T15:42:07.791Z,5.00
2022-10-08T15:44:36.401Z,5.57
2022-10-08T15:47:07.188Z,5.13
2022-10-08T15:49:38.999Z,6.17
2022-10-08T15:52:08.955Z,5.10
2022-10-08T15:54:38.085Z,5.17
2022-10-08T15:57:06.635Z,6.00
2022-10-08T15:59:35.284Z,5.90
2022-10-08T16:02:04.154Z,5.20
2022-10-08T16:04:33.283Z,6.70
2022-10-08T16:07:03.964Z,6.77
2022-10-08T16:09:33.099Z,6.77
2022-10-08T16:12:02.628Z,7.40
2022-10-08T16:14:32.284Z,6.23
2022-10-08T16:17:01.952Z,5.97
2022-10-08T16:19:31.932Z,7.13
2022-10-08T16:22:04.524Z,6.67
2022-10-08T16:24:34.675Z,5.80
2022-10-08T16:27:04.612Z,6.90
2022-10-08T16:29:34.723Z,7.30
2022-10-08T16:32:04.625Z,6.47
2022-10-08T16:34:33.744Z,7.50
2022-10-08T16:37:05.242Z,10.10
2022-10-08T16:39:33.869Z,8.03
2022-10-08T16:42:03.268Z,7.50
2022-10-08T16:44:32.128Z,6.30
2022-10-08T16:47:05.924Z,6.87
2022-10-08T16:49:34.848Z,6.83
2022-10-08T16:52:08.575Z,7.17
2022-10-08T16:54:37.361Z,6.50
2022-10-08T16:57:05.963Z,7.10
2022-10-08T16:59:34.658Z,6.27
2022-10-08T17:02:03.813Z,7.63
2022-10-08T17:04:39.507Z,11.40
2022-10-08T17:07:11.256Z,13.50
2022-10-08T17:09:40.276Z,12.23
2022-10-08T17:12:09.057Z,10.73
2022-10-08T17:14:38.557Z,12.87
2022-10-08T17:17:07.337Z,16.93
2022-10-08T17:19:36.043Z,60.20
2022-10-08T17:22:04.389Z,25.40
2022-10-08T17:24:40.183Z,14.00
2022-10-08T17:27:11.911Z,9.93
2022-10-08T17:29:40.764Z,10.60
2022-10-08T17:32:11.637Z,10.80
2022-10-08T17:34:40.168Z,12.03
2022-10-08T17:37:08.694Z,10.63
2022-10-08T17:39:39.263Z,9.03
2022-10-08T17:42:08.604Z,11.47
2022-10-08T17:44:37.353Z,9.50
2022-10-08T17:47:06.583Z,8.30
2022-10-08T17:49:35.299Z,12.83
2022-10-08T17:52:03.701Z,15.63
2022-10-08T17:54:32.215Z,10.73
2022-10-08T17:57:02.368Z,9.97
2022-10-08T17:59:30.963Z,9.40
2022-10-08T18:02:00.845Z,19.70
2022-10-08T18:04:30.381Z,11.53
2022-10-08T18:07:03.243Z,9.07
2022-10-08T18:09:32.329Z,9.20
2022-10-08T18:12:02.398Z,7.93
2022-10-08T18:14:31.175Z,10.07
2022-10-08T18:17:00.709Z,10.10
2022-10-08T18:19:29.549Z,11.40
2022-10-08T18:21:58.333Z,14.17
2022-10-08T18:24:27.284Z,15.80
2022-10-08T18:26:59.601Z,15.67
2022-10-08T18:29:30.527Z,15.67
2022-10-08T18:31:59.782Z,15.80
2022-10-08T18:34:28.146Z,16.73
2022-10-08T18:36:56.688Z,17.23
2022-10-08T18:39:28.492Z,16.17
2022-10-08T18:41:57.683Z,11.40
2022-10-08T18:44:28.933Z,12.60
2022-10-08T18:47:01.735Z,11.43
2022-10-08T18:49:34.687Z,10.30
2022-10-08T18:52:03.429Z,11.10
2022-10-08T18:54:32.285Z,11.00
2022-10-08T18:57:01.088Z,15.23
2022-10-08T18:59:32.527Z,11.10
2022-10-08T19:02:01.789Z,10.97
2022-10-08T19:04:35.088Z,11.17
2022-10-08T19:07:04.076Z,10.20
2022-10-08T19:09:33.441Z,11.63
2022-10-08T19:12:02.511Z,10.20
2022-10-08T19:14:33.573Z,10.50
2022-10-08T19:17:05.103Z,10.47
2022-10-08T19:19:34.083Z,9.63
2022-10-08T19:22:03.273Z,10.53
2022-10-08T19:24:31.920Z,10.90
2022-10-08T19:27:00.801Z,9.33
2022-10-08T19:29:34.416Z,11.40
2022-10-08T19:32:04.002Z,10.27
2022-10-08T19:34:33.583Z,10.00
2022-10-08T19:37:02.402Z,10.33
2022-10-08T19:39:33.870Z,12.03
2022-10-08T19:42:02.563Z,10.30
2022-10-08T19:44:32.671Z,10.27
2022-10-08T19:47:03.879Z,11.00
2022-10-08T19:49:32.813Z,12.20
2022-10-08T19:52:01.302Z,12.37
2022-10-08T19:54:31.411Z,10.97
2022-10-08T19:56:59.995Z,11.53
2022-10-08T19:59:28.733Z,12.10
2022-10-08T20:01:59.526Z,11.17
2022-10-08T20:04:28.717Z,11.53
2022-10-08T20:06:57.462Z,8.90
2022-10-08T20:09:27.643Z,9.50
2022-10-08T20:11:57.286Z,10.80
2022-10-08T20:14:26.253Z,9.77
2022-10-08T20:16:55.266Z,8.70
2022-10-08T20:19:26.045Z,8.30
2022-10-08T20:21:56.170Z,9.33
2022-10-08T20:24:24.853Z,8.47
2022-10-08T20:26:55.194Z,9.60
2022-10-08T20:29:28.721Z,10.23
2022-10-08T20:31:59.927Z,8.23
2022-10-08T20:34:31.622Z,8.77
2022-10-08T20:37:02.985Z,8.13
2022-10-08T20:39:33.310Z,9.70
2022-10-08T20:42:01.911Z,9.03
2022-10-08T20:44:31.069Z,7.77
2022-10-08T20:47:00.749Z,7.20
2022-10-08T20:49:36.205Z,8.00
2022-10-08T20:52:05.542Z,8.10
2022-10-08T20:54:34.508Z,7.87
2022-10-08T20:57:03.266Z,7.80
2022-10-08T20:59:34.486Z,7.30
2022-10-08T21:02:04.145Z,7.37
2022-10-08T21:04:34.383Z,7.93
2022-10-08T21:07:02.865Z,7.73
2022-10-08T21:09:31.662Z,7.47
2022-10-08T21:11:59.903Z,8.10
2022-10-08T21:14:29.903Z,9.97
2022-10-08T21:16:58.445Z,16.47
2022-10-08T21:19:27.309Z,12.10
2022-10-08T21:21:58.040Z,11.23
2022-10-08T21:24:27.192Z,10.87
2022-10-08T21:26:55.973Z,15.50
2022-10-08T21:29:24.820Z,11.37
2022-10-08T21:31:53.582Z,11.83
2022-10-08T21:34:22.511Z,10.20
2022-10-08T21:36:51.412Z,11.90
2022-10-08T21:39:21.863Z,11.17
2022-10-08T21:41:52.642Z,12.43
2022-10-08T21:44:21.903Z,11.10
2022-10-08T21:46:50.918Z,11.00
2022-10-08T21:49:21.269Z,11.40
2022-10-08T21:51:50.690Z,11.33
2022-10-08T21:54:20.455Z,10.63
2022-10-08T21:56:49.780Z,9.20
2022-10-08T21:59:18.249Z,9.80
2022-10-08T22:01:48.603Z,9.37
2022-10-08T22:04:19.151Z,9.57
2022-10-08T22:06:49.121Z,9.43
2022-10-08T22:09:22.962Z,8.53
2022-10-08T22:11:57.616Z,8.10
2022-10-08T22:14:44.761Z,8.30
2022-10-08T22:17:13.283Z,8.13
2022-10-08T22:19:42.009Z,8.83
2022-10-08T22:22:10.270Z,6.50
2022-10-08T22:24:39.822Z,6.90
2022-10-08T22:27:08.162Z,5.87
2022-10-08T22:29:36.892Z,6.00
2022-10-08T22:32:06.671Z,6.33
2022-10-08T22:34:36.772Z,6.27
2022-10-08T22:37:07.458Z,6.87
2022-10-08T22:39:38.205Z,4.47
2022-10-08T22:42:08.729Z,4.10
2022-10-08T22:44:40.044Z,4.40
2022-10-08T22:47:12.095Z,3.03
2022-10-08T22:49:41.616Z,3.73
2022-10-08T22:52:11.245Z,3.40
2022-10-08T22:54:40.520Z,4.23
2022-10-08T22:57:11.006Z,2.70
2022-10-08T22:59:40.529Z,3.23
2022-10-08T23:02:09.912Z,3.17
2022-10-08T23:04:38.647Z,3.67
2022-10-08T23:07:07.523Z,2.70
2022-10-08T23:09:36.296Z,3.03
2022-10-08T23:12:05.339Z,3.50
2022-10-08T23:14:35.631Z,3.00
2022-10-08T23:17:04.092Z,4.23
2022-10-08T23:19:32.701Z,2.90
2022-10-08T23:22:01.841Z,2.30
2022-10-08T23:24:31.228Z,2.33
2022-10-08T23:27:00.222Z,3.40
2022-10-08T23:29:29.047Z,2.90
2022-10-08T23:31:59.733Z,2.90
2022-10-08T23:34:28.214Z,2.93
2022-10-08T23:36:57.049Z,2.73
2022-10-08T23:39:26.164Z,3.30
2022-10-08T23:41:54.471Z,3.30
2022-10-08T23:44:23.858Z,3.47
2022-10-08T23:46:52.876Z,3.23
2022-10-08T23:49:22.680Z,3.70
2022-10-08T23:51:51.888Z,2.97
2022-10-08T23:54:20.435Z,3.47
2022-10-08T23:56:49.129Z,3.33
2022-10-08T23:59:17.971Z,3.10
